Time;durP1;ratioP1;P1;durP2;ratioP2;P2;SDS_P1;SDS_P2;PMS_P1;PMS_P2;Temp;Humidity;BMP_temperature;BMP_pressure;BME280_temperature;BME280_humidity;BME280_pressure;Samples;Min_cycle;Max_cycle;Signal;HPM_P1;HPM_P2
2024/02/05 00:05:00;;;;;;;2.17;1.10;;;22.50;46.90;;;;;;10462471;28;20151;-50
2024/02/05 00:10:05;;;;;;;2.35;0.85;;;22.40;47.00;;;;;;10457695;28;20130;-50
2024/02/05 00:15:08;;;;;;;2.72;0.98;;;22.40;46.90;;;;;;10456585;28;20059;-50
2024/02/05 00:20:10;;;;;;;3.50;1.27;;;22.40;46.90;;;;;;10468966;28;20044;-51
2024/02/05 00:25:13;;;;;;;2.30;0.90;;;22.30;46.90;;;;;;10469089;28;20127;-49
2024/02/05 00:30:15;;;;;;;2.58;1.13;;;22.30;46.90;;;;;;10459813;28;20103;-53
2024/02/05 00:35:17;;;;;;;4.45;1.00;;;22.20;47.00;;;;;;10462878;28;20136;-52
2024/02/05 00:40:20;;;;;;;4.78;1.15;;;22.30;46.60;;;;;;10466021;28;20131;-49
2024/02/05 00:45:22;;;;;;;2.47;1.00;;;22.20;46.70;;;;;;10469263;28;20503;-50
2024/02/05 00:50:24;;;;;;;2.45;1.50;;;22.20;46.70;;;;;;10448669;28;20128;-49
2024/02/05 00:55:27;;;;;;;2.38;1.30;;;22.10;46.50;;;;;;10466392;28;20049;-50
2024/02/05 01:00:28;;;;;;;2.53;1.00;;;22.20;46.40;;;;;;10470009;28;20048;-50
2024/02/05 01:05:30;;;;;;;2.10;1.00;;;22.10;46.60;;;;;;10459375;28;20127;-53
2024/02/05 01:10:33;;;;;;;3.75;1.10;;;22.20;46.40;;;;;;10459173;28;20123;-54
2024/02/05 01:15:35;;;;;;;3.50;1.05;;;22.20;46.30;;;;;;10471930;28;20072;-49
2024/02/05 01:20:36;;;;;;;2.40;1.38;;;22.10;46.30;;;;;;10459887;28;20384;-49
2024/02/05 01:25:40;;;;;;;1.52;1.00;;;22.10;46.60;;;;;;10448330;28;20128;-49
2024/02/05 01:30:43;;;;;;;1.27;0.82;;;22.00;46.80;;;;;;10453830;28;20399;-49
2024/02/05 01:35:45;;;;;;;2.00;1.10;;;22.00;46.80;;;;;;10461693;28;20045;-49
2024/02/05 01:40:49;;;;;;;2.40;1.08;;;22.10;46.70;;;;;;10463357;28;20123;-51
2024/02/05 01:45:50;;;;;;;2.38;1.02;;;22.10;46.80;;;;;;10459408;28;21411;-52
2024/02/05 01:50:52;;;;;;;2.40;1.00;;;22.10;46.50;;;;;;10462086;28;20132;-49
2024/02/05 01:55:55;;;;;;;3.05;1.10;;;22.00;46.60;;;;;;10453577;28;20050;-51
2024/02/05 02:00:56;;;;;;;1.98;0.90;;;22.00;46.70;;;;;;10460055;28;20123;-49
2024/02/05 02:05:58;;;;;;;2.90;1.42;;;22.10;46.40;;;;;;10451695;28;20125;-48
2024/02/05 02:11:01;;;;;;;2.53;1.20;;;22.10;46.30;;;;;;10457078;28;20128;-51
2024/02/05 02:16:05;;;;;;;1.90;0.80;;;22.20;46.20;;;;;;10461583;28;20566;-49
2024/02/05 02:21:06;;;;;;;3.15;1.10;;;22.10;46.40;;;;;;10457141;28;20481;-49
2024/02/05 02:26:10;;;;;;;1.70;0.90;;;22.10;46.30;;;;;;10458499;28;20115;-48
2024/02/05 02:31:12;;;;;;;2.90;1.10;;;22.20;46.30;;;;;;10468304;28;20044;-49
2024/02/05 02:36:17;;;;;;;2.08;1.08;;;22.20;46.20;;;;;;10452614;28;20040;-49
2024/02/05 02:41:22;;;;;;;3.28;1.20;;;22.30;46.00;;;;;;10453522;28;20040;-48
2024/02/05 02:46:24;;;;;;;2.20;1.15;;;22.20;46.20;;;;;;10450429;28;20452;-50
2024/02/05 02:51:27;;;;;;;2.65;0.85;;;22.00;46.50;;;;;;10457476;28;20067;-52
2024/02/05 02:56:30;;;;;;;2.13;0.80;;;22.10;46.40;;;;;;10454657;28;20041;-50
2024/02/05 03:01:32;;;;;;;2.80;1.10;;;22.10;46.40;;;;;;10457799;28;20490;-55
2024/02/05 03:06:34;;;;;;;3.47;1.10;;;22.10;46.20;;;;;;10459276;28;20592;-55
2024/02/05 03:11:37;;;;;;;1.80;0.98;;;22.10;46.20;;;;;;10445822;28;20044;-51
2024/02/05 03:16:38;;;;;;;2.38;1.10;;;22.10;46.20;;;;;;10461393;28;20124;-50
2024/02/05 03:21:40;;;;;;;2.15;0.93;;;22.10;46.20;;;;;;10453149;28;20040;-52
2024/02/05 03:26:43;;;;;;;2.50;1.25;;;22.10;46.20;;;;;;10456391;28;20126;-52
2024/02/05 03:31:45;;;;;;;1.95;0.85;;;22.10;46.40;;;;;;10455754;28;20044;-50
2024/02/05 03:36:46;;;;;;;1.75;1.05;;;22.10;46.30;;;;;;10456595;28;20521;-50
2024/02/05 03:41:49;;;;;;;1.80;0.90;;;22.00;46.40;;;;;;10453035;28;20133;-51
2024/02/05 03:46:51;;;;;;;2.25;0.95;;;22.00;46.30;;;;;;10464828;28;20048;-50
2024/02/05 03:51:52;;;;;;;2.30;0.98;;;22.00;46.30;;;;;;10453295;28;20559;-53
2024/02/05 03:56:55;;;;;;;1.90;0.88;;;22.00;46.30;;;;;;10454190;28;20313;-53
2024/02/05 04:01:57;;;;;;;2.65;0.90;;;21.90;46.50;;;;;;10450261;28;20042;-51
2024/02/05 04:06:59;;;;;;;2.42;1.15;;;21.90;46.50;;;;;;10461528;28;20128;-48
2024/02/05 04:12:02;;;;;;;2.38;1.20;;;22.50;45.50;;;;;;10462883;28;20068;-49
2024/02/05 04:17:08;;;;;;;2.70;1.10;;;22.40;45.70;;;;;;10458426;28;20049;-49
2024/02/05 04:22:10;;;;;;;2.38;0.98;;;22.00;46.80;;;;;;10464158;28;20524;-53
2024/02/05 04:27:14;;;;;;;1.55;0.90;;;22.00;46.90;;;;;;10447948;28;20133;-52
2024/02/05 04:32:16;;;;;;;3.35;1.10;;;22.10;47.00;;;;;;10462032;28;20488;-50
2024/02/05 04:37:17;;;;;;;2.00;1.00;;;22.10;46.90;;;;;;10454755;28;20140;-48
2024/02/05 04:42:20;;;;;;;1.98;0.98;;;22.20;46.70;;;;;;10457758;28;20045;-49
2024/02/05 04:47:22;;;;;;;2.58;1.15;;;22.10;46.80;;;;;;10458616;28;20055;-51
2024/02/05 04:52:23;;;;;;;1.40;0.90;;;22.20;46.90;;;;;;10456918;28;20041;-52
2024/02/05 04:57:26;;;;;;;3.08;1.10;;;22.10;47.00;;;;;;10464855;28;20517;-51
2024/02/05 05:02:28;;;;;;;2.53;1.00;;;22.20;47.00;;;;;;10456125;28;20036;-54
2024/02/05 05:07:30;;;;;;;3.13;1.38;;;22.20;46.90;;;;;;10460683;28;20172;-51
2024/02/05 05:12:32;;;;;;;3.53;1.50;;;22.20;46.70;;;;;;10462438;28;20127;-49
2024/02/05 05:17:34;;;;;;;4.20;1.50;;;22.20;46.60;;;;;;10453935;28;20178;-53
2024/02/05 05:22:36;;;;;;;2.50;1.30;;;22.30;46.50;;;;;;10457620;28;20132;-50
2024/02/05 05:27:39;;;;;;;4.78;1.65;;;22.20;46.90;;;;;;10459974;28;20151;-49
2024/02/05 05:32:40;;;;;;;4.95;1.73;;;22.40;46.70;;;;;;10459351;28;20068;-49
2024/02/05 05:37:44;;;;;;;3.15;1.45;;;22.50;46.50;;;;;;10453394;28;20049;-48
2024/02/05 05:42:46;;;;;;;5.38;1.85;;;22.40;46.50;;;;;;10447940;28;20141;-54
2024/02/05 05:47:48;;;;;;;8.48;1.90;;;22.40;46.60;;;;;;10468396;28;20053;-49
2024/02/05 05:52:50;;;;;;;10.05;2.17;;;22.40;46.90;;;;;;10462697;28;20410;-50
2024/02/05 05:57:53;;;;;;;15.77;2.13;;;22.50;47.30;;;;;;10453843;28;20135;-49
2024/02/05 06:02:56;;;;;;;14.00;3.45;;;22.70;49.40;;;;;;10456613;28;20133;-55
2024/02/05 06:07:57;;;;;;;13.27;3.90;;;22.80;49.10;;;;;;10458762;28;20490;-51
2024/02/05 06:13:03;;;;;;;14.23;3.45;;;22.60;48.40;;;;;;10461192;28;20075;-50
2024/02/05 06:18:05;;;;;;;12.70;3.83;;;22.60;47.90;;;;;;10441263;28;20063;-51
2024/02/05 06:23:06;;;;;;;14.15;3.72;;;22.80;47.60;;;;;;10452184;28;20063;-50
2024/02/05 06:28:09;;;;;;;10.07;3.65;;;22.90;47.60;;;;;;10457302;28;20053;-50
2024/02/05 06:33:11;;;;;;;10.40;3.17;;;22.90;47.50;;;;;;10444424;28;20072;-50
2024/02/05 06:38:13;;;;;;;20.02;4.28;;;23.00;47.40;;;;;;10452755;28;20051;-52
2024/02/05 06:43:16;;;;;;;17.35;4.10;;;23.10;47.50;;;;;;10463988;28;20235;-54
2024/02/05 06:48:18;;;;;;;14.98;4.03;;;23.00;48.70;;;;;;10457549;28;20040;-51
2024/02/05 06:53:19;;;;;;;18.40;3.45;;;23.00;48.50;;;;;;10459764;28;20144;-51
2024/02/05 06:58:22;;;;;;;19.23;4.03;;;22.90;48.00;;;;;;10444363;28;20045;-55
2024/02/05 07:03:24;;;;;;;13.73;4.22;;;22.80;47.40;;;;;;10451976;28;20051;-51
2024/02/05 07:08:26;;;;;;;12.27;3.90;;;22.30;46.30;;;;;;10455010;28;20041;-55
2024/02/05 07:13:29;;;;;;;18.60;4.25;;;22.30;46.80;;;;;;10449011;28;20044;-53
2024/02/05 07:18:30;;;;;;;17.83;5.07;;;22.70;45.90;;;;;;10454115;28;20047;-53
2024/02/05 07:23:36;;;;;;;17.52;4.85;;;22.40;45.40;;;;;;10465746;28;20400;-56
2024/02/05 07:28:39;;;;;;;21.40;5.00;;;22.30;45.90;;;;;;10459154;28;20052;-52
2024/02/05 07:33:41;;;;;;;13.75;3.63;;;22.50;45.30;;;;;;10446962;28;20052;-53
2024/02/05 07:38:43;;;;;;;13.60;3.58;;;22.60;45.20;;;;;;10447296;28;20069;-51
2024/02/05 07:43:46;;;;;;;18.83;4.00;;;22.60;45.10;;;;;;10463941;28;20041;-51
2024/02/05 07:48:47;;;;;;;15.88;3.97;;;22.70;45.20;;;;;;10459936;28;20507;-55
2024/02/05 07:53:49;;;;;;;14.68;3.97;;;22.70;45.40;;;;;;10459488;28;20128;-49
2024/02/05 07:58:52;;;;;;;15.32;4.45;;;22.70;45.90;;;;;;10470141;28;20045;-49
2024/02/05 08:03:54;;;;;;;11.93;3.65;;;22.80;46.10;;;;;;10470113;28;20045;-52
2024/02/05 08:08:56;;;;;;;13.68;3.63;;;22.80;46.30;;;;;;10463989;28;20050;-55
2024/02/05 08:13:59;;;;;;;13.70;3.70;;;22.90;45.80;;;;;;10454372;28;20053;-49
2024/02/05 08:19:01;;;;;;;12.50;3.22;;;22.90;45.80;;;;;;10465965;28;20103;-51
2024/02/05 08:24:02;;;;;;;8.98;3.15;;;23.10;45.40;;;;;;10462245;28;20396;-49
2024/02/05 08:29:05;;;;;;;9.85;3.00;;;23.00;45.70;;;;;;10457204;28;20053;-53
2024/02/05 08:34:07;;;;;;;12.35;3.55;;;23.10;45.60;;;;;;10459591;28;20075;-54
2024/02/05 08:39:10;;;;;;;9.75;2.85;;;23.20;45.30;;;;;;10471041;28;20137;-51
2024/02/05 08:44:13;;;;;;;10.00;3.05;;;23.10;45.40;;;;;;10461621;28;20103;-52
2024/02/05 08:49:15;;;;;;;11.73;3.33;;;23.10;45.00;;;;;;10457576;28;20052;-52
2024/02/05 08:54:16;;;;;;;11.25;3.20;;;23.30;44.60;;;;;;10460717;28;20048;-54
2024/02/05 08:59:19;;;;;;;13.25;3.50;;;23.20;44.70;;;;;;10467624;28;20159;-53
2024/02/05 09:04:21;;;;;;;12.68;3.10;;;23.20;44.70;;;;;;10453555;28;20086;-54
2024/02/05 09:09:23;;;;;;;11.27;3.22;;;23.30;44.20;;;;;;10460412;28;20044;-53
2024/02/05 09:14:25;;;;;;;11.80;3.05;;;23.50;43.50;;;;;;10463974;28;20140;-55
2024/02/05 09:19:27;;;;;;;10.55;2.70;;;23.30;43.50;;;;;;10475730;28;20571;-52
2024/02/05 09:24:29;;;;;;;8.32;3.00;;;23.40;43.20;;;;;;10453375;28;20160;-50
2024/02/05 09:29:32;;;;;;;9.98;2.95;;;23.30;43.10;;;;;;10456010;28;20041;-51
2024/02/05 09:34:33;;;;;;;10.15;2.92;;;23.20;43.20;;;;;;10462312;28;20049;-51
2024/02/05 09:39:35;;;;;;;12.48;3.00;;;23.00;43.40;;;;;;10457151;28;20108;-50
2024/02/05 09:44:38;;;;;;;9.18;3.05;;;22.70;44.10;;;;;;10458740;28;20470;-56
2024/02/05 09:49:40;;;;;;;9.35;2.97;;;22.50;45.00;;;;;;10464688;28;20075;-52
2024/02/05 09:54:42;;;;;;;11.70;3.13;;;22.90;44.20;;;;;;10480515;28;20049;-55
2024/02/05 09:59:46;;;;;;;10.65;2.90;;;23.20;43.40;;;;;;10458487;28;20071;-57
2024/02/05 10:04:48;;;;;;;8.38;2.67;;;23.10;43.50;;;;;;10458769;28;20106;-56
2024/02/05 10:09:50;;;;;;;6.82;2.67;;;22.70;44.30;;;;;;10456668;28;20128;-58
2024/02/05 10:14:52;;;;;;;10.25;2.67;;;22.80;44.40;;;;;;10460231;28;20132;-58
2024/02/05 10:19:54;;;;;;;7.15;2.70;;;23.10;43.50;;;;;;10456265;28;20484;-56
2024/02/05 10:24:58;;;;;;;10.90;3.30;;;23.30;43.00;;;;;;10459778;28;20044;-55
2024/02/05 10:30:01;;;;;;;6.95;2.60;;;23.20;43.10;;;;;;10468034;28;20045;-56
2024/02/05 10:35:03;;;;;;;8.65;2.92;;;22.90;43.80;;;;;;10461364;28;20471;-55
2024/02/05 10:40:06;;;;;;;8.30;2.70;;;22.60;44.70;;;;;;10460851;28;20048;-56
2024/02/05 10:45:10;;;;;;;10.20;2.55;;;22.50;45.00;;;;;;10453647;28;20493;-55
2024/02/05 10:50:13;;;;;;;9.85;2.85;;;22.70;44.70;;;;;;10459874;28;20132;-58
2024/02/05 10:55:15;;;;;;;7.90;2.33;;;23.10;43.90;;;;;;10459878;28;20123;-58
2024/02/05 11:00:19;;;;;;;7.97;2.40;;;22.80;44.30;;;;;;10456770;28;20124;-53
2024/02/05 11:05:21;;;;;;;9.85;2.80;;;22.80;44.30;;;;;;10459770;28;20123;-55
2024/02/05 11:10:22;;;;;;;7.50;2.80;;;22.80;44.70;;;;;;10470186;28;20064;-54
2024/02/05 11:15:26;;;;;;;6.85;2.42;;;22.80;44.80;;;;;;10462067;28;20550;-53
2024/02/05 11:20:28;;;;;;;9.02;2.45;;;22.90;44.70;;;;;;10471728;28;20123;-52
2024/02/05 11:25:31;;;;;;;6.55;2.53;;;22.90;44.70;;;;;;10466171;28;20498;-55
2024/02/05 11:30:36;;;;;;;6.70;2.40;;;22.90;44.60;;;;;;10473020;28;20131;-55
2024/02/05 11:35:37;;;;;;;7.05;2.30;;;22.90;44.50;;;;;;10470816;28;20471;-54
2024/02/05 11:40:40;;;;;;;6.82;2.30;;;23.00;44.50;;;;;;10471692;28;20131;-54
2024/02/05 11:45:43;;;;;;;8.25;2.95;;;23.00;44.30;;;;;;10473227;28;20048;-51
2024/02/05 11:50:44;;;;;;;8.75;2.63;;;23.10;44.20;;;;;;10474458;28;20510;-54
2024/02/05 11:55:46;;;;;;;6.10;2.42;;;23.10;44.10;;;;;;10473652;28;20040;-57
2024/02/05 12:00:49;;;;;;;8.00;2.78;;;23.00;44.20;;;;;;10461065;28;20123;-51
2024/02/05 12:05:51;;;;;;;7.72;2.22;;;23.10;44.10;;;;;;10468692;28;20145;-53
2024/02/05 12:10:52;;;;;;;5.45;2.17;;;23.10;44.00;;;;;;10470295;28;20048;-54
2024/02/05 12:15:56;;;;;;;5.53;2.40;;;23.10;43.80;;;;;;10468316;28;20132;-55
2024/02/05 12:20:58;;;;;;;6.13;2.30;;;23.10;43.60;;;;;;10467841;28;20067;-54
2024/02/05 12:26:01;;;;;;;6.22;2.30;;;23.10;43.80;;;;;;10478488;28;20451;-54
2024/02/05 12:31:04;;;;;;;5.57;2.25;;;23.40;42.90;;;;;;10462833;28;20422;-53
2024/02/05 12:36:08;;;;;;;5.63;2.33;;;23.30;42.70;;;;;;10461853;28;20495;-53
2024/02/05 12:41:09;;;;;;;6.13;2.03;;;23.20;43.00;;;;;;10460448;28;20155;-52
2024/02/05 12:46:12;;;;;;;5.10;2.00;;;23.40;42.60;;;;;;10457405;28;20152;-49
2024/02/05 12:51:14;;;;;;;5.25;2.13;;;23.40;42.80;;;;;;10463056;28;20044;-52
2024/02/05 12:56:16;;;;;;;6.85;2.05;;;23.30;43.00;;;;;;10461131;28;20132;-50
2024/02/05 13:01:19;;;;;;;5.03;2.30;;;23.20;43.40;;;;;;10467286;28;20045;-52
2024/02/05 13:06:24;;;;;;;4.45;2.30;;;23.30;43.40;;;;;;10455212;28;20103;-55
2024/02/05 13:11:28;;;;;;;8.43;2.58;;;23.20;43.60;;;;;;10460209;28;20151;-54
2024/02/05 13:16:31;;;;;;;9.13;2.67;;;23.20;42.90;;;;;;10454382;28;20077;-51
2024/02/05 13:21:33;;;;;;;17.15;2.35;;;23.20;42.90;;;;;;10450707;28;20527;-51
2024/02/05 13:26:39;;;;;;;6.90;2.50;;;23.50;42.40;;;;;;10463976;28;20160;-56
2024/02/05 13:31:42;;;;;;;6.13;2.10;;;23.50;42.50;;;;;;10463044;28;20123;-53
2024/02/05 13:36:43;;;;;;;7.20;2.50;;;23.60;42.30;;;;;;10460621;28;20045;-51
2024/02/05 13:41:45;;;;;;;6.72;2.45;;;23.50;42.30;;;;;;10458636;28;20041;-54
2024/02/05 13:46:48;;;;;;;7.28;2.20;;;23.70;42.30;;;;;;10460089;28;20670;-49
2024/02/05 13:51:50;;;;;;;5.55;1.90;;;23.70;42.10;;;;;;10452076;28;20143;-56
2024/02/05 13:56:52;;;;;;;7.68;2.10;;;23.70;42.20;;;;;;10446553;28;20041;-55
2024/02/05 14:01:55;;;;;;;4.30;1.63;;;23.70;42.30;;;;;;10453252;28;20686;-54
2024/02/05 14:06:57;;;;;;;5.80;2.30;;;23.60;42.50;;;;;;10452514;28;20476;-52
2024/02/05 14:11:59;;;;;;;6.15;2.10;;;23.60;43.20;;;;;;10462287;28;20041;-53
2024/02/05 14:17:03;;;;;;;5.22;1.92;;;23.60;42.30;;;;;;10455957;28;20563;-53
2024/02/05 14:22:04;;;;;;;7.03;2.30;;;23.60;42.20;;;;;;10443951;28;20052;-50
2024/02/05 14:27:06;;;;;;;6.93;2.20;;;23.70;41.80;;;;;;10463711;28;20144;-49
2024/02/05 14:32:10;;;;;;;6.40;2.47;;;23.50;42.20;;;;;;10454364;28;20036;-52
2024/02/05 14:37:12;;;;;;;8.15;2.67;;;23.30;42.70;;;;;;10454265;28;20037;-54
2024/02/05 14:42:14;;;;;;;8.82;2.53;;;23.60;42.20;;;;;;10455643;28;20041;-53
2024/02/05 14:47:17;;;;;;;6.13;2.13;;;23.50;42.30;;;;;;10460430;28;20053;-53
2024/02/05 14:52:18;;;;;;;8.93;2.00;;;23.60;42.00;;;;;;10456234;28;20384;-54
2024/02/05 14:57:20;;;;;;;7.65;2.15;;;23.50;42.70;;;;;;10443167;28;20410;-54
2024/02/05 15:02:23;;;;;;;8.25;2.13;;;23.30;43.00;;;;;;10452962;28;20131;-56
2024/02/05 15:07:26;;;;;;;6.65;2.20;;;23.30;43.50;;;;;;10458297;28;20094;-56
2024/02/05 15:12:28;;;;;;;6.95;2.10;;;23.20;43.70;;;;;;10451499;28;20032;-56
2024/02/05 15:17:31;;;;;;;9.60;2.30;;;23.30;44.50;;;;;;10452847;28;20056;-57
2024/02/05 15:22:32;;;;;;;8.32;2.40;;;23.30;45.30;;;;;;10455905;28;20047;-56
2024/02/05 15:27:34;;;;;;;7.55;2.42;;;23.40;45.80;;;;;;10460105;28;20477;-57
2024/02/05 15:32:37;;;;;;;14.10;2.30;;;23.30;47.10;;;;;;10456508;28;20128;-55
2024/02/05 15:37:38;;;;;;;7.10;2.15;;;23.30;46.80;;;;;;10444438;28;20128;-57
2024/02/05 15:42:41;;;;;;;14.52;2.03;;;23.40;46.70;;;;;;10456245;28;20041;-55
2024/02/05 15:47:44;;;;;;;7.75;2.20;;;23.50;46.70;;;;;;10453506;28;20048;-54
2024/02/05 15:52:45;;;;;;;7.50;2.70;;;23.90;45.30;;;;;;10454763;28;20044;-58
2024/02/05 15:57:47;;;;;;;7.50;2.17;;;24.00;44.90;;;;;;10452566;28;20578;-57
2024/02/05 16:02:50;;;;;;;6.00;2.30;;;24.10;44.80;;;;;;10459359;28;20143;-56
2024/02/05 16:07:52;;;;;;;6.72;2.13;;;24.40;43.80;;;;;;10470347;28;20055;-54
2024/02/05 16:12:53;;;;;;;7.53;1.92;;;24.10;44.00;;;;;;10459601;28;20131;-56
2024/02/05 16:17:56;;;;;;;14.18;2.30;;;23.90;44.40;;;;;;10461149;28;20418;-57
2024/02/05 16:22:58;;;;;;;11.85;2.10;;;23.90;44.10;;;;;;10463526;28;20066;-55
2024/02/05 16:27:59;;;;;;;6.70;1.92;;;24.10;43.70;;;;;;10459216;28;20057;-52
2024/02/05 16:33:02;;;;;;;10.82;2.03;;;24.30;43.20;;;;;;10461347;28;20128;-55
2024/02/05 16:38:04;;;;;;;7.50;1.73;;;24.30;43.00;;;;;;10467272;28;20131;-54
2024/02/05 16:43:06;;;;;;;53.85;5.65;;;24.30;43.10;;;;;;10463453;28;20159;-57
2024/02/05 16:48:09;;;;;;;23.67;4.07;;;23.80;44.50;;;;;;10460926;28;20129;-57
2024/02/05 16:53:11;;;;;;;25.75;3.45;;;23.90;44.50;;;;;;10456477;28;20140;-53
2024/02/05 16:58:12;;;;;;;16.00;3.03;;;23.90;44.30;;;;;;10463652;28;20055;-54
2024/02/05 17:03:15;;;;;;;17.17;3.08;;;23.90;44.30;;;;;;10455349;28;20128;-51
2024/02/05 17:08:17;;;;;;;18.00;3.63;;;24.00;44.30;;;;;;10460882;28;20053;-53
2024/02/05 17:13:18;;;;;;;21.58;2.67;;;23.90;43.90;;;;;;10459702;28;20128;-55
2024/02/05 17:18:21;;;;;;;22.33;2.78;;;24.10;43.70;;;;;;10471745;28;20128;-47
2024/02/05 17:23:23;;;;;;;11.02;2.20;;;24.00;43.70;;;;;;10456717;28;20077;-53
2024/02/05 17:28:24;;;;;;;19.70;2.80;;;23.90;43.50;;;;;;10451677;28;20131;-52
2024/02/05 17:33:27;;;;;;;12.02;2.92;;;23.30;46.10;;;;;;10457016;28;21741;-49
2024/02/05 17:38:29;;;;;;;13.40;2.55;;;23.80;45.20;;;;;;10460311;28;20546;-58
2024/02/05 17:43:31;;;;;;;11.48;2.28;;;23.70;44.30;;;;;;10455472;28;20520;-58
2024/02/05 17:48:35;;;;;;;12.05;2.15;;;23.60;44.50;;;;;;10459792;28;20513;-57
2024/02/05 17:53:36;;;;;;;5.03;1.95;;;23.70;44.40;;;;;;10464248;28;20053;-55
2024/02/05 17:58:39;;;;;;;8.20;1.85;;;23.60;44.30;;;;;;10464987;28;20159;-59
2024/02/05 18:03:42;;;;;;;6.82;1.80;;;23.60;44.10;;;;;;10456177;28;20044;-52
2024/02/05 18:08:44;;;;;;;5.03;1.85;;;23.50;43.90;;;;;;10453215;28;20411;-57
2024/02/05 18:13:46;;;;;;;6.47;2.00;;;23.60;43.70;;;;;;10459388;28;20127;-54
2024/02/05 18:18:49;;;;;;;17.27;2.15;;;23.60;43.80;;;;;;10457425;28;20102;-54
2024/02/05 18:23:50;;;;;;;6.15;1.70;;;23.50;44.00;;;;;;10458908;28;20139;-57
2024/02/05 18:28:52;;;;;;;5.82;2.05;;;23.70;44.30;;;;;;10458007;28;20127;-54
2024/02/05 18:33:55;;;;;;;9.02;2.05;;;23.60;44.60;;;;;;10464946;28;20049;-55
2024/02/05 18:38:56;;;;;;;5.45;1.60;;;23.60;44.80;;;;;;10456797;28;20136;-54
2024/02/05 18:43:58;;;;;;;5.45;1.73;;;23.50;45.00;;;;;;10458126;28;20140;-57
2024/02/05 18:49:02;;;;;;;12.30;1.73;;;23.60;45.00;;;;;;10458334;28;20755;-59
2024/02/05 18:54:04;;;;;;;7.35;1.70;;;23.60;46.10;;;;;;10457613;28;20114;-58
2024/02/05 18:59:06;;;;;;;10.95;2.00;;;23.50;46.60;;;;;;10458136;28;20132;-58
2024/02/05 19:04:09;;;;;;;8.70;1.73;;;23.60;46.70;;;;;;10459471;28;20101;-56
2024/02/05 19:09:10;;;;;;;7.43;1.90;;;23.70;46.50;;;;;;10457188;28;20559;-51
2024/02/05 19:14:12;;;;;;;5.88;1.67;;;23.60;46.30;;;;;;10461224;28;20057;-50
2024/02/05 19:19:17;;;;;;;5.93;1.50;;;23.50;46.20;;;;;;10458008;28;20144;-49
2024/02/05 19:24:19;;;;;;;5.40;1.63;;;23.50;46.20;;;;;;10448265;28;20482;-57
2024/02/05 19:29:20;;;;;;;14.18;2.03;;;23.60;46.00;;;;;;10458499;28;20512;-52
2024/02/05 19:34:23;;;;;;;6.80;1.50;;;23.60;46.10;;;;;;10460180;28;20155;-48
2024/02/05 19:39:25;;;;;;;3.45;1.20;;;23.60;46.50;;;;;;10466588;28;20140;-53
2024/02/05 19:44:27;;;;;;;9.65;1.77;;;23.70;46.70;;;;;;10470099;28;20144;-49
2024/02/05 19:49:30;;;;;;;12.70;1.65;;;23.60;46.70;;;;;;10466872;28;20037;-53
2024/02/05 19:54:36;;;;;;;5.05;1.50;;;23.60;46.90;;;;;;10461601;28;20051;-52
2024/02/05 19:59:37;;;;;;;3.88;1.40;;;23.60;47.00;;;;;;10462088;28;20040;-49
2024/02/05 20:04:40;;;;;;;5.57;1.55;;;23.70;46.50;;;;;;10458648;28;20053;-52
2024/02/05 20:09:42;;;;;;;4.25;1.85;;;23.50;47.10;;;;;;10460379;28;20043;-52
2024/02/05 20:14:43;;;;;;;16.50;1.90;;;23.50;47.40;;;;;;10459698;28;20484;-51
2024/02/05 20:19:46;;;;;;;9.75;1.60;;;23.30;48.20;;;;;;10460364;28;20139;-54
2024/02/05 20:24:49;;;;;;;10.43;1.40;;;23.40;47.80;;;;;;10463163;28;20102;-51
2024/02/05 20:29:51;;;;;;;7.95;1.65;;;23.30;47.80;;;;;;10460880;28;20049;-53
2024/02/05 20:34:54;;;;;;;8.88;1.60;;;23.30;48.80;;;;;;10459891;28;20115;-55
2024/02/05 20:39:56;;;;;;;10.27;1.80;;;23.40;48.20;;;;;;10456926;28;20127;-50
2024/02/05 20:44:59;;;;;;;4.63;1.25;;;23.30;48.40;;;;;;10461793;28;20136;-55
2024/02/05 20:50:02;;;;;;;5.65;1.40;;;23.30;48.20;;;;;;10465197;28;20517;-56
2024/02/05 20:55:05;;;;;;;6.97;1.27;;;23.20;48.10;;;;;;10462751;28;20044;-49
2024/02/05 21:00:08;;;;;;;6.90;1.48;;;23.00;48.00;;;;;;10464467;28;20075;-54
2024/02/05 21:05:11;;;;;;;5.50;1.23;;;22.90;48.00;;;;;;10470184;28;20455;-51
2024/02/05 21:10:13;;;;;;;9.07;1.55;;;22.70;48.20;;;;;;10469671;28;20060;-56
2024/02/05 21:15:15;;;;;;;8.23;1.42;;;22.70;48.00;;;;;;10449476;28;20413;-50
2024/02/05 21:20:18;;;;;;;6.68;1.58;;;22.50;48.00;;;;;;10450735;28;20075;-55
2024/02/05 21:25:21;;;;;;;1.50;0.80;;;22.30;48.30;;;;;;10462255;28;20041;-55
2024/02/05 21:30:23;;;;;;;4.32;1.30;;;22.40;47.70;;;;;;10463012;28;20052;-54
2024/02/05 21:35:26;;;;;;;2.95;1.40;;;22.30;48.00;;;;;;10461765;28;20131;-56
2024/02/05 21:40:28;;;;;;;4.63;1.25;;;22.70;47.10;;;;;;10461985;28;20141;-53
2024/02/05 21:45:30;;;;;;;4.97;1.67;;;22.90;46.60;;;;;;10458126;28;20043;-55
2024/02/05 21:50:33;;;;;;;3.78;1.20;;;23.10;46.30;;;;;;10458405;28;20072;-52
2024/02/05 21:55:34;;;;;;;3.25;1.05;;;22.90;46.40;;;;;;10453708;28;20127;-50
2024/02/05 22:00:36;;;;;;;3.65;0.90;;;23.20;45.90;;;;;;10455184;28;20132;-51
2024/02/05 22:05:40;;;;;;;3.15;1.15;;;23.10;45.90;;;;;;10462505;28;20414;-55
2024/02/05 22:10:41;;;;;;;3.03;1.02;;;23.20;45.50;;;;;;10461378;28;20717;-55
2024/02/05 22:15:43;;;;;;;3.25;1.10;;;23.10;45.80;;;;;;10459259;28;20132;-53
2024/02/05 22:20:46;;;;;;;1.95;0.90;;;23.10;45.40;;;;;;10465810;28;20135;-53
2024/02/05 22:25:48;;;;;;;2.03;1.20;;;23.10;45.60;;;;;;10456337;28;20042;-51
2024/02/05 22:30:49;;;;;;;3.17;1.23;;;23.00;45.60;;;;;;10453815;28;20490;-56
2024/02/05 22:35:52;;;;;;;2.33;0.95;;;22.80;46.00;;;;;;10451953;28;20127;-57
2024/02/05 22:40:54;;;;;;;2.47;1.20;;;22.90;45.90;;;;;;10454797;28;20147;-56
2024/02/05 22:45:55;;;;;;;3.72;1.00;;;23.00;45.50;;;;;;10455522;28;20851;-53
2024/02/05 22:50:58;;;;;;;4.03;1.00;;;22.90;45.80;;;;;;10455881;28;20140;-53
2024/02/05 22:56:01;;;;;;;2.55;1.00;;;23.10;45.30;;;;;;10457015;28;20120;-56
2024/02/05 23:01:03;;;;;;;2.50;1.20;;;23.10;45.20;;;;;;10457075;28;20055;-55
2024/02/05 23:06:06;;;;;;;1.63;0.82;;;23.10;45.10;;;;;;10452842;28;20102;-53
2024/02/05 23:11:07;;;;;;;1.33;0.77;;;23.10;45.10;;;;;;10446273;28;20455;-56
2024/02/05 23:16:09;;;;;;;2.15;0.80;;;23.00;45.10;;;;;;10452213;28;20057;-51
2024/02/05 23:21:12;;;;;;;2.55;1.00;;;23.10;45.10;;;;;;10450384;28;20064;-53
2024/02/05 23:26:14;;;;;;;1.33;0.82;;;23.10;44.90;;;;;;10454668;28;20078;-53
2024/02/05 23:31:15;;;;;;;1.30;0.98;;;23.30;44.70;;;;;;10453330;28;20566;-50
2024/02/05 23:36:19;;;;;;;1.67;0.90;;;23.20;44.80;;;;;;10451075;28;20132;-52
2024/02/05 23:41:20;;;;;;;2.17;0.90;;;23.20;44.90;;;;;;10457093;28;20047;-53
2024/02/05 23:46:22;;;;;;;2.10;0.95;;;23.30;44.60;;;;;;10452141;28;20084;-54
2024/02/05 23:51:25;;;;;;;1.60;0.70;;;23.20;44.60;;;;;;10449464;28;20128;-50
2024/02/05 23:56:27;;;;;;;1.85;0.80;;;23.20;44.60;;;;;;10455254;28;20040;-53
